Kinloss, United Kingdom
Current Conditions -  °F | °C
As of 2:50 AM on Saturday 20 Dec 2014 (Local Time) from EGQK Reporting Station
Broken Clouds Broken Clouds  
Wind Chill: 31°   Ceiling: 4900
Heat Index: 41°   Visibility: 6mi
Dew Point: 32°   Wind: 25mph
Humidity: 70%   Direction: 260°W
Pressure: 29.65"   Gusts: 37mph
Location:  57.64°N, 3.57°W
Report Text: EGQK 200250Z AUTO 26022G32KT 9999 FEW038/// BKN049/// 05/M00 Q1004
Loading
Personal Weather Stations






























Interactive Weather Map New forecast layout! Learn more

10-Day Weather Forecast

Advertisements
Track Severe Weather on mobile